createdAt,value
2018-01-14T00:00:52.959Z,0
2018-01-14T00:01:54.819Z,0
2018-01-14T00:02:56.703Z,0
2018-01-14T00:04:10.855Z,0
2018-01-14T00:05:12.743Z,0
2018-01-14T00:06:14.622Z,0
2018-01-14T00:07:16.503Z,0
2018-01-14T00:08:18.294Z,0
2018-01-14T00:09:20.094Z,0
2018-01-14T00:10:21.976Z,0
2018-01-14T00:11:23.871Z,0
2018-01-14T00:12:25.688Z,0
2018-01-14T00:13:39.867Z,0
2018-01-14T00:14:41.723Z,0
2018-01-14T00:15:43.580Z,0
2018-01-14T00:16:45.440Z,0
2018-01-14T00:17:47.258Z,0
2018-01-14T00:18:49.052Z,0
2018-01-14T00:19:50.940Z,0
2018-01-14T00:20:52.798Z,0
2018-01-14T00:21:54.622Z,0
2018-01-14T00:23:08.819Z,0
2018-01-14T00:24:10.677Z,0
2018-01-14T00:25:12.540Z,0
2018-01-14T00:26:14.422Z,0
2018-01-14T00:27:16.222Z,0
2018-01-14T00:28:18.038Z,0
2018-01-14T00:29:19.906Z,0
2018-01-14T00:30:21.790Z,0
2018-01-14T00:31:23.679Z,0
2018-01-14T00:32:37.828Z,0
2018-01-14T00:33:39.698Z,0
2018-01-14T00:34:41.552Z,0
2018-01-14T00:35:43.436Z,0
2018-01-14T00:36:45.256Z,0
2018-01-14T00:37:47.070Z,0
2018-01-14T00:38:48.932Z,0
2018-01-14T00:39:50.818Z,0
2018-01-14T00:40:52.678Z,0
2018-01-14T00:42:06.830Z,0
2018-01-14T00:43:08.690Z,0
2018-01-14T00:44:10.551Z,0
2018-01-14T00:45:12.433Z,0
2018-01-14T00:46:14.233Z,0
2018-01-14T00:47:16.019Z,0
2018-01-14T00:48:17.883Z,0
2018-01-14T00:49:19.739Z,0
2018-01-14T00:50:21.603Z,0
2018-01-14T00:51:35.735Z,0
2018-01-14T00:52:37.591Z,0
2018-01-14T00:53:39.453Z,0
2018-01-14T00:54:41.338Z,0
2018-01-14T00:55:43.152Z,0
2018-01-14T00:56:44.940Z,0
2018-01-14T00:57:46.805Z,0
2018-01-14T00:58:48.666Z,0
2018-01-14T00:59:50.529Z,0
2018-01-14T01:01:04.677Z,0
2018-01-14T01:02:06.538Z,0
2018-01-14T01:03:08.402Z,0
2018-01-14T01:04:10.278Z,0
2018-01-14T01:05:12.077Z,0
2018-01-14T01:06:13.894Z,0
2018-01-14T01:07:15.753Z,0
2018-01-14T01:08:17.618Z,0
2018-01-14T01:09:19.479Z,0
2018-01-14T01:10:33.679Z,0
2018-01-14T01:11:35.537Z,0
2018-01-14T01:12:37.392Z,0
2018-01-14T01:13:39.244Z,0
2018-01-14T01:14:41.040Z,0
2018-01-14T01:15:42.838Z,0
2018-01-14T01:16:44.695Z,0
2018-01-14T01:17:46.565Z,0
2018-01-14T01:18:48.441Z,0
2018-01-14T01:20:02.625Z,0
2018-01-14T01:21:04.479Z,0
2018-01-14T01:22:06.331Z,0
2018-01-14T01:23:08.194Z,0
2018-01-14T01:24:10.014Z,0
2018-01-14T01:25:11.830Z,0
2018-01-14T01:26:13.707Z,0
2018-01-14T01:27:15.568Z,0
2018-01-14T01:28:17.427Z,0
2018-01-14T01:29:31.560Z,0
2018-01-14T01:30:33.439Z,0
2018-01-14T01:31:35.299Z,0
2018-01-14T01:32:37.168Z,0
2018-01-14T01:33:38.957Z,0
2018-01-14T01:34:40.755Z,0
2018-01-14T01:35:42.640Z,0
2018-01-14T01:36:44.528Z,0
2018-01-14T01:37:46.385Z,0
2018-01-14T01:39:00.519Z,0
2018-01-14T01:40:02.380Z,0
2018-01-14T01:41:04.232Z,0
2018-01-14T01:42:06.093Z,0
2018-01-14T01:43:07.910Z,0
2018-01-14T01:44:09.700Z,0
2018-01-14T01:45:11.564Z,0
2018-01-14T01:46:13.430Z,0
2018-01-14T01:47:15.286Z,0
2018-01-14T01:48:29.422Z,0
2018-01-14T01:49:31.299Z,0
2018-01-14T01:50:33.173Z,0
2018-01-14T01:51:35.019Z,0
2018-01-14T01:52:36.822Z,0
2018-01-14T01:53:38.644Z,0
2018-01-14T01:54:40.522Z,0
2018-01-14T01:55:42.388Z,0
2018-01-14T01:56:44.265Z,0
2018-01-14T01:57:58.401Z,0
2018-01-14T01:59:00.290Z,0
2018-01-14T02:00:02.164Z,0
2018-01-14T02:01:04.018Z,0
2018-01-14T02:02:05.815Z,0
2018-01-14T02:03:07.604Z,0
2018-01-14T02:04:09.470Z,0
2018-01-14T02:05:11.338Z,0
2018-01-14T02:06:13.219Z,0
2018-01-14T02:07:27.344Z,0
2018-01-14T02:08:29.211Z,0
2018-01-14T02:09:31.092Z,0
2018-01-14T02:10:32.954Z,0
2018-01-14T02:11:34.757Z,0
2018-01-14T02:12:36.566Z,0
2018-01-14T02:13:38.430Z,0
2018-01-14T02:14:40.298Z,0
2018-01-14T02:15:42.177Z,0
2018-01-14T02:16:56.310Z,0
2018-01-14T02:17:58.191Z,0
2018-01-14T02:19:00.053Z,0
2018-01-14T02:20:01.914Z,0
2018-01-14T02:21:03.712Z,0
2018-01-14T02:22:05.526Z,0
2018-01-14T02:23:07.388Z,0
2018-01-14T02:24:09.252Z,0
2018-01-14T02:25:11.138Z,0
2018-01-14T02:26:25.290Z,0
2018-01-14T02:27:27.145Z,0
2018-01-14T02:28:29.004Z,0
2018-01-14T02:29:30.863Z,0
2018-01-14T02:30:32.664Z,0
2018-01-14T02:31:34.478Z,0
2018-01-14T02:32:36.364Z,0
2018-01-14T02:33:38.231Z,0
2018-01-14T02:34:40.069Z,0
2018-01-14T02:35:54.199Z,0
2018-01-14T02:36:56.062Z,0
2018-01-14T02:37:57.919Z,0
2018-01-14T02:38:59.780Z,0
2018-01-14T02:40:01.575Z,0
2018-01-14T02:41:03.367Z,0
2018-01-14T02:42:05.234Z,0
2018-01-14T02:43:07.112Z,0
2018-01-14T02:44:08.980Z,0
2018-01-14T02:45:23.107Z,0
2018-01-14T02:46:24.977Z,0
2018-01-14T02:47:26.858Z,0
2018-01-14T02:48:28.738Z,0
2018-01-14T02:49:30.533Z,0
2018-01-14T02:50:32.333Z,0
2018-01-14T02:51:34.210Z,0
2018-01-14T02:52:36.071Z,0
2018-01-14T02:53:37.930Z,0
2018-01-14T02:54:52.061Z,0
2018-01-14T02:55:53.943Z,0
2018-01-14T02:56:55.799Z,0
2018-01-14T02:57:57.663Z,0
2018-01-14T02:58:59.450Z,0
2018-01-14T03:00:01.247Z,0
2018-01-14T03:01:03.126Z,0
2018-01-14T03:02:05.032Z,0
2018-01-14T03:03:06.859Z,0
2018-01-14T03:04:21.009Z,0
2018-01-14T03:05:22.869Z,0
2018-01-14T03:06:24.751Z,0
2018-01-14T03:07:26.628Z,0
2018-01-14T03:08:28.425Z,0
2018-01-14T03:09:30.241Z,0
2018-01-14T03:10:32.118Z,0
2018-01-14T03:11:33.983Z,0
2018-01-14T03:12:35.862Z,0
2018-01-14T03:13:50.007Z,0
2018-01-14T03:14:51.885Z,0
2018-01-14T03:15:53.752Z,0
2018-01-14T03:16:55.607Z,0
2018-01-14T03:17:57.399Z,0
2018-01-14T03:18:59.198Z,0
2018-01-14T03:20:01.077Z,0
2018-01-14T03:21:02.933Z,0
2018-01-14T03:22:04.792Z,0
2018-01-14T03:23:18.916Z,0
2018-01-14T03:24:20.777Z,0
2018-01-14T03:25:22.631Z,0
2018-01-14T03:26:24.485Z,0
2018-01-14T03:27:26.277Z,0
2018-01-14T03:28:28.092Z,0
2018-01-14T03:29:29.953Z,0
2018-01-14T03:30:31.830Z,0
2018-01-14T03:31:33.692Z,0
2018-01-14T03:32:47.838Z,0
2018-01-14T03:33:49.697Z,0
2018-01-14T03:34:51.554Z,0
2018-01-14T03:35:53.410Z,0
2018-01-14T03:36:55.205Z,0
2018-01-14T03:37:57.016Z,0
2018-01-14T03:38:58.878Z,0
2018-01-14T03:40:00.759Z,0
2018-01-14T03:41:02.613Z,0
2018-01-14T03:42:16.741Z,0
2018-01-14T03:43:18.604Z,0
2018-01-14T03:44:20.479Z,0
2018-01-14T03:45:22.341Z,0
2018-01-14T03:46:24.132Z,0
2018-01-14T03:47:25.923Z,0
2018-01-14T03:48:27.782Z,0
2018-01-14T03:49:29.640Z,0
2018-01-14T03:50:31.518Z,0
2018-01-14T03:51:45.695Z,0
2018-01-14T03:52:47.573Z,0
2018-01-14T03:53:49.434Z,0
2018-01-14T03:54:51.294Z,0
2018-01-14T03:55:53.106Z,0
2018-01-14T03:56:54.894Z,0
2018-01-14T03:57:56.756Z,0
2018-01-14T03:58:58.621Z,0
2018-01-14T04:00:00.497Z,0
2018-01-14T04:01:14.622Z,0
2018-01-14T04:02:16.486Z,0
2018-01-14T04:03:18.343Z,0
2018-01-14T04:04:20.226Z,0
2018-01-14T04:05:22.020Z,0
2018-01-14T04:06:23.834Z,0
2018-01-14T04:07:25.716Z,0
2018-01-14T04:08:27.578Z,0
2018-01-14T04:09:29.434Z,0
2018-01-14T04:10:43.562Z,0
2018-01-14T04:11:45.422Z,0
2018-01-14T04:12:47.276Z,0
2018-01-14T04:13:49.135Z,0
2018-01-14T04:14:50.948Z,0
2018-01-14T04:15:52.765Z,0
2018-01-14T04:16:54.646Z,0
2018-01-14T04:17:56.523Z,0
2018-01-14T04:18:58.383Z,0
2018-01-14T04:20:12.497Z,0
2018-01-14T04:21:14.315Z,0
2018-01-14T04:22:16.125Z,0
2018-01-14T04:23:17.917Z,0
2018-01-14T04:24:19.768Z,0
2018-01-14T04:25:21.629Z,0
2018-01-14T04:26:23.485Z,0
2018-01-14T04:27:25.279Z,0
2018-01-14T04:28:27.096Z,0
2018-01-14T04:29:41.242Z,0
2018-01-14T04:30:43.101Z,0
2018-01-14T04:31:44.957Z,0
2018-01-14T04:32:46.833Z,0
2018-01-14T04:33:48.625Z,0
2018-01-14T04:34:50.422Z,0
2018-01-14T04:35:52.280Z,0
2018-01-14T04:36:54.161Z,0
2018-01-14T04:37:56.039Z,0
2018-01-14T04:39:10.165Z,0
2018-01-14T04:40:12.030Z,0
2018-01-14T04:41:13.906Z,0
2018-01-14T04:42:15.764Z,0
2018-01-14T04:43:17.560Z,0
2018-01-14T04:44:19.377Z,0
2018-01-14T04:45:21.258Z,0
2018-01-14T04:46:23.133Z,0
2018-01-14T04:47:24.995Z,0
2018-01-14T04:48:39.144Z,0
2018-01-14T04:49:41.007Z,0
2018-01-14T04:50:42.882Z,0
2018-01-14T04:51:44.739Z,0
2018-01-14T04:52:46.533Z,0
2018-01-14T04:53:48.332Z,0
2018-01-14T04:54:50.210Z,0
2018-01-14T04:55:52.087Z,0
2018-01-14T04:56:53.941Z,0
2018-01-14T04:58:08.072Z,0
2018-01-14T04:59:09.954Z,0
2018-01-14T05:00:11.830Z,0
2018-01-14T05:01:13.688Z,0
2018-01-14T05:02:15.500Z,0
2018-01-14T05:03:17.294Z,0
2018-01-14T05:04:19.150Z,0
2018-01-14T05:05:21.007Z,0
2018-01-14T05:06:22.861Z,0
2018-01-14T05:07:36.987Z,0
2018-01-14T05:08:38.848Z,0
2018-01-14T05:09:40.704Z,0
2018-01-14T05:10:42.559Z,0
2018-01-14T05:11:44.350Z,0
2018-01-14T05:12:46.145Z,0
2018-01-14T05:13:48.024Z,0
2018-01-14T05:14:49.886Z,0
2018-01-14T05:15:51.738Z,0
2018-01-14T05:17:05.867Z,0
2018-01-14T05:18:07.746Z,0
2018-01-14T05:19:09.607Z,0
2018-01-14T05:20:11.481Z,0
2018-01-14T05:21:13.276Z,0
2018-01-14T05:22:15.095Z,0
2018-01-14T05:23:16.969Z,0
2018-01-14T05:24:18.832Z,0
2018-01-14T05:25:20.707Z,0
2018-01-14T05:26:34.887Z,0
2018-01-14T05:27:36.738Z,0
2018-01-14T05:28:38.596Z,0
2018-01-14T05:29:40.476Z,0
2018-01-14T05:30:42.297Z,0
2018-01-14T05:31:44.111Z,0
2018-01-14T05:32:45.961Z,0
2018-01-14T05:33:47.814Z,0
2018-01-14T05:34:49.670Z,0
2018-01-14T05:36:03.843Z,0
2018-01-14T05:37:05.701Z,0
2018-01-14T05:38:07.560Z,0
2018-01-14T05:39:09.411Z,0
2018-01-14T05:40:11.206Z,0
2018-01-14T05:41:13.001Z,0
2018-01-14T05:42:14.857Z,0
2018-01-14T05:43:16.726Z,0
2018-01-14T05:44:18.600Z,0
2018-01-14T05:45:32.800Z,0
2018-01-14T05:46:34.654Z,0
2018-01-14T05:47:36.537Z,0
2018-01-14T05:48:38.416Z,0
2018-01-14T05:49:40.227Z,0
2018-01-14T05:50:42.024Z,0
2018-01-14T05:51:43.877Z,0
2018-01-14T05:52:45.732Z,0
2018-01-14T05:53:47.609Z,0
2018-01-14T05:55:01.742Z,0
2018-01-14T05:56:03.617Z,0
2018-01-14T05:57:05.477Z,0
2018-01-14T05:58:07.332Z,0
2018-01-14T05:59:09.127Z,0
2018-01-14T06:00:10.939Z,0
2018-01-14T06:01:12.795Z,0
2018-01-14T06:02:14.654Z,0
2018-01-14T06:03:16.512Z,0
2018-01-14T06:04:30.712Z,0
2018-01-14T06:05:32.564Z,0
2018-01-14T06:06:34.423Z,0
2018-01-14T06:07:36.304Z,0
2018-01-14T06:08:38.102Z,0
2018-01-14T06:09:39.917Z,0
2018-01-14T06:10:41.789Z,0
2018-01-14T06:11:43.642Z,0
2018-01-14T06:12:45.503Z,0
2018-01-14T06:13:59.697Z,0
2018-01-14T06:15:01.558Z,0
2018-01-14T06:16:03.437Z,0
2018-01-14T06:17:05.298Z,0
2018-01-14T06:18:07.116Z,0
2018-01-14T06:19:08.928Z,0
2018-01-14T06:20:10.783Z,0
2018-01-14T06:21:12.635Z,0
2018-01-14T06:22:14.489Z,0
2018-01-14T06:23:28.619Z,0
2018-01-14T06:24:30.504Z,0
2018-01-14T06:25:32.379Z,0
2018-01-14T06:26:34.230Z,0
2018-01-14T06:27:36.083Z,0
2018-01-14T06:28:37.818Z,0
2018-01-14T06:29:39.676Z,0
2018-01-14T06:30:41.533Z,0
2018-01-14T06:31:43.390Z,0
2018-01-14T06:32:57.523Z,0
2018-01-14T06:33:59.408Z,0
2018-01-14T06:35:01.272Z,0
2018-01-14T06:36:03.148Z,0
2018-01-14T06:37:04.947Z,0
2018-01-14T06:38:06.761Z,0
2018-01-14T06:39:08.619Z,0
2018-01-14T06:40:10.484Z,0
2018-01-14T06:41:12.366Z,0
2018-01-14T06:42:26.510Z,0
2018-01-14T06:43:28.374Z,0
2018-01-14T06:44:30.229Z,0
2018-01-14T06:45:32.107Z,0
2018-01-14T06:46:33.906Z,0
2018-01-14T06:47:35.723Z,0
2018-01-14T06:48:37.600Z,5
2018-01-14T06:49:39.461Z,5
2018-01-14T06:50:41.320Z,5
2018-01-14T06:51:55.447Z,5
2018-01-14T06:52:57.309Z,5
2018-01-14T06:53:59.169Z,5
2018-01-14T06:55:01.031Z,5
2018-01-14T06:56:02.842Z,10
2018-01-14T06:57:04.645Z,10
2018-01-14T06:58:06.526Z,10
2018-01-14T06:59:08.385Z,10
2018-01-14T07:00:10.243Z,10
2018-01-14T07:01:24.371Z,15
2018-01-14T07:02:26.230Z,15
2018-01-14T07:03:28.090Z,15
2018-01-14T07:04:29.976Z,15
2018-01-14T07:05:31.792Z,20
2018-01-14T07:06:33.589Z,20
2018-01-14T07:07:35.456Z,20
2018-01-14T07:08:37.316Z,20
2018-01-14T07:09:39.200Z,25
2018-01-14T07:10:53.348Z,25
2018-01-14T07:11:55.209Z,25
2018-01-14T07:12:57.070Z,30
2018-01-14T07:13:58.957Z,30
2018-01-14T07:15:00.766Z,30
2018-01-14T07:16:02.561Z,30
2018-01-14T07:17:04.384Z,35
2018-01-14T07:18:06.174Z,35
2018-01-14T07:19:08.015Z,35
2018-01-14T07:20:22.161Z,40
2018-01-14T07:21:24.031Z,40
2018-01-14T07:22:25.915Z,40
2018-01-14T07:23:27.778Z,45
2018-01-14T07:24:29.570Z,45
2018-01-14T07:25:31.362Z,45
2018-01-14T07:26:33.224Z,50
2018-01-14T07:27:35.086Z,50
2018-01-14T07:28:36.949Z,55
2018-01-14T07:29:51.114Z,55
2018-01-14T07:30:52.970Z,55
2018-01-14T07:31:54.832Z,55
2018-01-14T07:32:56.692Z,60
2018-01-14T07:33:58.490Z,60
2018-01-14T07:35:00.317Z,60
2018-01-14T07:36:02.199Z,65
2018-01-14T07:37:04.095Z,70
2018-01-14T07:38:05.960Z,70
2018-01-14T07:39:20.125Z,75
2018-01-14T07:40:22.008Z,75
2018-01-14T07:41:23.874Z,75
2018-01-14T07:42:25.758Z,75
2018-01-14T07:43:27.556Z,75
2018-01-14T07:44:29.345Z,75
2018-01-14T07:45:31.218Z,80
2018-01-14T07:46:33.071Z,80
2018-01-14T07:47:34.953Z,80
2018-01-14T07:48:49.103Z,85
2018-01-14T07:49:50.966Z,85
2018-01-14T07:50:52.829Z,85
2018-01-14T07:51:54.687Z,90
2018-01-14T07:52:56.510Z,90
2018-01-14T07:53:58.327Z,90
2018-01-14T07:55:00.194Z,90
2018-01-14T07:56:02.088Z,95
2018-01-14T07:57:03.937Z,95
2018-01-14T07:58:18.135Z,95
2018-01-14T07:59:20.054Z,95
2018-01-14T08:00:21.939Z,100
2018-01-14T08:01:23.799Z,100
2018-01-14T08:02:25.625Z,100
2018-01-14T08:03:27.450Z,100
2018-01-14T08:04:29.356Z,105
2018-01-14T08:05:31.268Z,105
2018-01-14T08:06:33.175Z,105
2018-01-14T08:07:47.355Z,105
2018-01-14T08:08:49.283Z,110
2018-01-14T08:09:51.173Z,110
2018-01-14T08:10:53.051Z,110
2018-01-14T08:11:54.855Z,110
2018-01-14T08:12:56.650Z,110
2018-01-14T08:13:58.536Z,115
2018-01-14T08:15:00.434Z,115
2018-01-14T08:16:02.299Z,115
2018-01-14T08:17:16.428Z,115
2018-01-14T08:18:18.296Z,115
2018-01-14T08:19:20.204Z,115
2018-01-14T08:20:22.137Z,120
2018-01-14T08:21:23.895Z,120
2018-01-14T08:22:25.695Z,120
2018-01-14T08:23:27.592Z,120
2018-01-14T08:24:29.418Z,120
2018-01-14T08:25:31.308Z,125
2018-01-14T08:26:45.559Z,125
2018-01-14T08:27:47.422Z,125
2018-01-14T08:28:49.315Z,125
2018-01-14T08:29:51.176Z,125
2018-01-14T08:30:53.042Z,125
2018-01-14T08:31:54.850Z,125
2018-01-14T08:32:56.785Z,130
2018-01-14T08:33:58.653Z,130
2018-01-14T08:35:00.570Z,130
2018-01-14T08:36:14.736Z,130
2018-01-14T08:37:16.601Z,130
2018-01-14T08:38:18.491Z,130
2018-01-14T08:39:20.353Z,135
2018-01-14T08:40:22.171Z,135
2018-01-14T08:41:23.966Z,135
2018-01-14T08:42:25.901Z,135
2018-01-14T08:43:27.757Z,135
2018-01-14T08:44:29.617Z,135
2018-01-14T08:45:43.748Z,135
2018-01-14T08:46:45.611Z,135
2018-01-14T08:47:47.472Z,135
2018-01-14T08:48:49.331Z,135
2018-01-14T08:49:51.135Z,140
2018-01-14T08:50:52.930Z,140
2018-01-14T08:51:54.790Z,140
2018-01-14T08:52:56.653Z,145
2018-01-14T08:53:58.515Z,145
2018-01-14T08:55:12.646Z,150
2018-01-14T08:56:14.511Z,150
2018-01-14T08:57:16.419Z,150
2018-01-14T08:58:18.285Z,150
2018-01-14T08:59:20.088Z,150
2018-01-14T09:00:21.914Z,150
2018-01-14T09:01:23.795Z,150
2018-01-14T09:02:25.662Z,150
2018-01-14T09:03:27.527Z,150
2018-01-14T09:04:41.656Z,150
2018-01-14T09:05:43.521Z,150
2018-01-14T09:06:45.410Z,150
2018-01-14T09:07:47.270Z,150
2018-01-14T09:08:49.066Z,155
2018-01-14T09:09:50.870Z,155
2018-01-14T09:10:52.750Z,155
2018-01-14T09:11:54.611Z,155
2018-01-14T09:12:56.480Z,155
2018-01-14T09:14:10.634Z,155
2018-01-14T09:15:12.498Z,155
2018-01-14T09:16:14.387Z,155
2018-01-14T09:17:16.263Z,160
2018-01-14T09:18:18.063Z,160
2018-01-14T09:19:19.867Z,160
2018-01-14T09:20:21.738Z,160
2018-01-14T09:21:23.621Z,160
2018-01-14T09:22:25.501Z,160
2018-01-14T09:23:39.636Z,155
2018-01-14T09:24:41.503Z,155
2018-01-14T09:25:43.385Z,160
2018-01-14T09:26:45.245Z,160
2018-01-14T09:27:47.045Z,160
2018-01-14T09:28:48.845Z,160
2018-01-14T09:29:50.732Z,160
2018-01-14T09:30:52.611Z,160
2018-01-14T09:31:54.473Z,160
2018-01-14T09:33:08.610Z,160
2018-01-14T09:34:10.495Z,165
2018-01-14T09:35:12.358Z,160
2018-01-14T09:36:14.218Z,160
2018-01-14T09:37:16.036Z,165
2018-01-14T09:38:17.860Z,165
2018-01-14T09:39:19.739Z,165
2018-01-14T09:40:21.602Z,165
2018-01-14T09:41:23.484Z,165
2018-01-14T09:42:37.618Z,165
2018-01-14T09:43:39.515Z,165
2018-01-14T09:44:41.395Z,165
2018-01-14T09:45:43.261Z,165
2018-01-14T09:46:45.091Z,165
2018-01-14T09:47:46.956Z,165
2018-01-14T09:48:48.785Z,165
2018-01-14T09:49:50.648Z,165
2018-01-14T09:50:52.531Z,165
2018-01-14T09:52:06.664Z,170
2018-01-14T09:53:08.529Z,170
2018-01-14T09:54:10.419Z,170
2018-01-14T09:55:12.277Z,170
2018-01-14T09:56:14.104Z,170
2018-01-14T09:57:15.901Z,170
2018-01-14T09:58:17.764Z,170
2018-01-14T09:59:19.622Z,170
2018-01-14T10:00:21.492Z,170
2018-01-14T10:01:35.651Z,170
2018-01-14T10:02:37.534Z,170
2018-01-14T10:03:39.400Z,170
2018-01-14T10:04:41.292Z,170
2018-01-14T10:05:43.092Z,170
2018-01-14T10:06:44.891Z,170
2018-01-14T10:07:46.753Z,170
2018-01-14T10:08:48.619Z,170
2018-01-14T10:09:50.505Z,170
2018-01-14T10:11:04.714Z,170
2018-01-14T10:12:06.570Z,170
2018-01-14T10:13:08.434Z,170
2018-01-14T10:14:10.303Z,170
2018-01-14T10:15:12.123Z,170
2018-01-14T10:16:13.925Z,170
2018-01-14T10:17:15.787Z,170
2018-01-14T10:18:17.671Z,165
2018-01-14T10:19:19.539Z,165
2018-01-14T10:20:33.695Z,165
2018-01-14T10:21:35.558Z,165
2018-01-14T10:22:37.420Z,165
2018-01-14T10:23:39.302Z,165
2018-01-14T10:24:41.099Z,165
2018-01-14T10:25:42.903Z,170
2018-01-14T10:26:44.795Z,170
2018-01-14T10:27:46.680Z,170
2018-01-14T10:28:48.566Z,170
2018-01-14T10:30:02.699Z,170
2018-01-14T10:31:04.563Z,170
2018-01-14T10:32:06.428Z,170
2018-01-14T10:33:08.308Z,170
2018-01-14T10:34:10.114Z,170
2018-01-14T10:35:11.936Z,170
2018-01-14T10:36:13.932Z,170
2018-01-14T10:37:15.826Z,170
2018-01-14T10:38:17.686Z,170
2018-01-14T10:39:31.816Z,170
2018-01-14T10:40:33.682Z,170
2018-01-14T10:41:35.569Z,170
2018-01-14T10:42:37.428Z,170
2018-01-14T10:43:39.231Z,170
2018-01-14T10:44:41.028Z,170
2018-01-14T10:45:42.894Z,170
2018-01-14T10:46:44.782Z,170
2018-01-14T10:47:46.666Z,170
2018-01-14T10:49:00.821Z,170
2018-01-14T10:50:02.686Z,170
2018-01-14T10:51:04.553Z,170
2018-01-14T10:52:06.407Z,170
2018-01-14T10:53:08.214Z,170
2018-01-14T10:54:10.008Z,170
2018-01-14T10:55:11.875Z,170
2018-01-14T10:56:13.732Z,175
2018-01-14T10:57:15.597Z,175
2018-01-14T10:58:29.799Z,180
2018-01-14T10:59:31.667Z,180
2018-01-14T11:00:33.550Z,185
2018-01-14T11:01:35.409Z,185
2018-01-14T11:02:37.218Z,180
2018-01-14T11:03:39.034Z,175
2018-01-14T11:04:40.898Z,180
2018-01-14T11:05:42.786Z,175
2018-01-14T11:06:44.666Z,170
2018-01-14T11:07:58.852Z,170
2018-01-14T11:09:04.698Z,170
2018-01-14T11:10:02.618Z,170
2018-01-14T11:11:04.504Z,170
2018-01-14T11:12:06.328Z,175
2018-01-14T11:13:08.189Z,175
2018-01-14T11:14:10.033Z,170
2018-01-14T11:15:11.888Z,170
2018-01-14T11:16:13.754Z,170
2018-01-14T11:17:27.911Z,170
2018-01-14T11:18:29.801Z,170
2018-01-14T11:19:31.698Z,170
2018-01-14T11:20:33.561Z,165
2018-01-14T11:21:35.364Z,165
2018-01-14T11:22:37.188Z,170
2018-01-14T11:23:39.075Z,175
2018-01-14T11:24:40.934Z,185
2018-01-14T11:25:42.802Z,190
2018-01-14T11:26:56.955Z,175
2018-01-14T11:27:58.820Z,170
2018-01-14T11:29:00.682Z,170
2018-01-14T11:30:02.574Z,175
2018-01-14T11:31:04.395Z,175
2018-01-14T11:32:06.198Z,175
2018-01-14T11:33:08.078Z,170
2018-01-14T11:34:09.970Z,170
2018-01-14T11:35:11.857Z,170
2018-01-14T11:36:26.008Z,170
2018-01-14T11:37:27.890Z,175
2018-01-14T11:38:29.777Z,175
2018-01-14T11:39:31.662Z,180
2018-01-14T11:40:33.458Z,190
2018-01-14T11:41:35.259Z,195
2018-01-14T11:42:37.126Z,195
2018-01-14T11:43:38.990Z,190
2018-01-14T11:44:40.854Z,190
2018-01-14T11:45:55.007Z,180
2018-01-14T11:46:56.870Z,180
2018-01-14T11:47:58.733Z,170
2018-01-14T11:49:00.595Z,170
2018-01-14T11:50:02.419Z,165
2018-01-14T11:51:04.239Z,165
2018-01-14T11:52:06.103Z,165
2018-01-14T11:53:07.991Z,165
2018-01-14T11:54:09.849Z,165
2018-01-14T11:55:24.026Z,185
2018-01-14T11:56:25.895Z,210
2018-01-14T11:57:27.764Z,210
2018-01-14T11:58:29.628Z,205
2018-01-14T11:59:31.450Z,210
2018-01-14T12:00:33.274Z,205
2018-01-14T12:01:35.164Z,195
2018-01-14T12:02:37.050Z,200
2018-01-14T12:03:38.910Z,210
2018-01-14T12:04:53.047Z,190
2018-01-14T12:05:54.933Z,185
2018-01-14T12:06:56.803Z,175
2018-01-14T12:07:58.735Z,185
2018-01-14T12:09:00.497Z,190
2018-01-14T12:10:02.323Z,190
2018-01-14T12:11:04.203Z,195
2018-01-14T12:12:06.087Z,205
2018-01-14T12:13:07.975Z,200
2018-01-14T12:14:22.128Z,200
2018-01-14T12:15:24.008Z,210
2018-01-14T12:16:25.935Z,225
2018-01-14T12:17:27.774Z,220
2018-01-14T12:18:29.596Z,210
2018-01-14T12:19:31.392Z,210
2018-01-14T12:20:33.259Z,215
2018-01-14T12:21:35.131Z,210
2018-01-14T12:22:37.019Z,220
2018-01-14T12:23:51.179Z,220
2018-01-14T12:24:53.068Z,205
2018-01-14T12:25:54.939Z,190
2018-01-14T12:26:56.829Z,180
2018-01-14T12:27:58.626Z,185
2018-01-14T12:29:00.429Z,180
2018-01-14T12:30:02.319Z,180
2018-01-14T12:31:04.201Z,175
2018-01-14T12:32:06.066Z,165
2018-01-14T12:33:20.200Z,160
2018-01-14T12:34:22.064Z,160
2018-01-14T12:35:23.929Z,165
2018-01-14T12:36:25.813Z,170
2018-01-14T12:37:27.621Z,175
2018-01-14T12:38:29.442Z,175
2018-01-14T12:39:31.389Z,170
2018-01-14T12:40:33.269Z,175
2018-01-14T12:41:35.139Z,180
2018-01-14T12:42:49.292Z,175
2018-01-14T12:43:51.184Z,170
2018-01-14T12:44:53.073Z,170
2018-01-14T12:45:54.938Z,165
2018-01-14T12:46:56.761Z,165
2018-01-14T12:47:58.559Z,165
2018-01-14T12:49:00.426Z,155
2018-01-14T12:50:02.296Z,155
2018-01-14T12:51:04.184Z,165
2018-01-14T12:52:18.373Z,165
2018-01-14T12:53:20.437Z,160
2018-01-14T12:54:22.327Z,160
2018-01-14T12:55:24.190Z,155
2018-01-14T12:56:25.991Z,155
2018-01-14T12:57:27.890Z,150
2018-01-14T12:58:29.785Z,155
2018-01-14T12:59:31.642Z,145
2018-01-14T13:00:33.530Z,145
2018-01-14T13:01:47.759Z,140
2018-01-14T13:02:49.658Z,145
2018-01-14T13:03:51.518Z,145
2018-01-14T13:04:53.392Z,140
2018-01-14T13:05:55.191Z,135
2018-01-14T13:06:57.004Z,130
2018-01-14T13:07:58.860Z,130
2018-01-14T13:09:00.688Z,125
2018-01-14T13:10:02.508Z,125
2018-01-14T13:11:16.660Z,120
2018-01-14T13:12:18.563Z,130
2018-01-14T13:13:20.447Z,140
2018-01-14T13:14:22.328Z,140
2018-01-14T13:15:24.150Z,135
2018-01-14T13:16:25.990Z,120
2018-01-14T13:17:27.891Z,120
2018-01-14T13:18:29.786Z,120
2018-01-14T13:19:31.669Z,120
2018-01-14T13:20:45.818Z,120
2018-01-14T13:21:47.721Z,125
2018-01-14T13:22:49.611Z,125
2018-01-14T13:23:51.483Z,120
2018-01-14T13:24:53.285Z,115
2018-01-14T13:25:55.121Z,120
2018-01-14T13:26:57.013Z,115
2018-01-14T13:27:58.883Z,110
2018-01-14T13:29:00.768Z,105
2018-01-14T13:30:14.917Z,110
2018-01-14T13:31:16.822Z,115
2018-01-14T13:32:18.710Z,120
2018-01-14T13:33:20.608Z,110
2018-01-14T13:34:22.403Z,110
2018-01-14T13:35:24.220Z,115
2018-01-14T13:36:26.117Z,110
2018-01-14T13:37:27.978Z,110
2018-01-14T13:38:29.840Z,110
2018-01-14T13:39:43.988Z,105
2018-01-14T13:40:45.859Z,100
2018-01-14T13:41:47.718Z,100
2018-01-14T13:42:49.601Z,105
2018-01-14T13:43:51.394Z,105
2018-01-14T13:44:53.230Z,105
2018-01-14T13:45:55.102Z,100
2018-01-14T13:46:56.987Z,95
2018-01-14T13:47:58.852Z,95
2018-01-14T13:49:13.049Z,90
2018-01-14T13:50:14.919Z,90
2018-01-14T13:51:16.807Z,90
2018-01-14T13:52:18.705Z,90
2018-01-14T13:53:20.527Z,85
2018-01-14T13:54:22.364Z,80
2018-01-14T13:55:24.231Z,75
2018-01-14T13:56:26.088Z,75
2018-01-14T13:57:27.951Z,75
2018-01-14T13:58:42.146Z,75
2018-01-14T13:59:43.966Z,70
2018-01-14T14:00:45.824Z,70
2018-01-14T14:01:47.697Z,70
2018-01-14T14:02:49.494Z,65
2018-01-14T14:03:51.304Z,65
2018-01-14T14:04:53.172Z,60
2018-01-14T14:05:55.062Z,60
2018-01-14T14:06:56.920Z,55
2018-01-14T14:08:11.069Z,55
2018-01-14T14:09:12.938Z,50
2018-01-14T14:10:14.797Z,45
2018-01-14T14:11:16.691Z,45
2018-01-14T14:12:18.489Z,40
2018-01-14T14:13:20.300Z,40
2018-01-14T14:14:22.192Z,45
2018-01-14T14:15:24.051Z,45
2018-01-14T14:16:25.916Z,45
2018-01-14T14:17:40.084Z,45
2018-01-14T14:18:41.982Z,40
2018-01-14T14:19:43.838Z,45
2018-01-14T14:20:45.711Z,45
2018-01-14T14:21:47.508Z,40
2018-01-14T14:22:49.341Z,40
2018-01-14T14:23:51.213Z,40
2018-01-14T14:24:53.100Z,35
2018-01-14T14:25:54.961Z,35
2018-01-14T14:27:09.113Z,35
2018-01-14T14:28:11.012Z,35
2018-01-14T14:29:12.905Z,35
2018-01-14T14:30:14.797Z,35
2018-01-14T14:31:16.615Z,35
2018-01-14T14:32:18.433Z,35
2018-01-14T14:33:20.331Z,35
2018-01-14T14:34:22.186Z,35
2018-01-14T14:35:24.055Z,30
2018-01-14T14:36:38.196Z,30
2018-01-14T14:37:40.061Z,25
2018-01-14T14:38:41.981Z,25
2018-01-14T14:39:43.936Z,25
2018-01-14T14:40:45.770Z,25
2018-01-14T14:41:47.585Z,25
2018-01-14T14:42:49.479Z,25
2018-01-14T14:43:51.392Z,20
2018-01-14T14:44:53.359Z,20
2018-01-14T14:46:07.609Z,20
2018-01-14T14:47:09.509Z,20
2018-01-14T14:48:11.397Z,20
2018-01-14T14:49:13.333Z,20
2018-01-14T14:50:15.152Z,20
2018-01-14T14:51:16.962Z,20
2018-01-14T14:52:18.828Z,20
2018-01-14T14:53:20.686Z,20
2018-01-14T14:54:22.545Z,20
2018-01-14T14:55:36.691Z,15
2018-01-14T14:56:38.553Z,15
2018-01-14T14:57:40.457Z,15
2018-01-14T14:58:42.320Z,15
2018-01-14T14:59:44.094Z,10
2018-01-14T15:00:45.913Z,10
2018-01-14T15:01:47.803Z,10
2018-01-14T15:02:49.695Z,10
2018-01-14T15:03:51.576Z,10